createdAt,value
2022-12-28T00:02:26.483Z,3.50
2022-12-28T00:07:29.496Z,3.60
2022-12-28T00:12:33.101Z,3.53
2022-12-28T00:17:37.720Z,3.53
2022-12-28T00:22:41.198Z,3.80
2022-12-28T00:27:44.245Z,3.60
2022-12-28T00:32:48.513Z,3.60
2022-12-28T00:37:51.508Z,4.00
2022-12-28T00:42:54.502Z,3.87
2022-12-28T00:47:58.841Z,3.57
2022-12-28T00:53:01.926Z,4.03
2022-12-28T00:58:05.061Z,4.83
2022-12-28T01:03:09.462Z,3.80
2022-12-28T01:08:12.642Z,3.70
2022-12-28T01:13:15.760Z,4.17
2022-12-28T01:18:20.176Z,3.90
2022-12-28T01:23:23.173Z,3.47
2022-12-28T01:28:26.198Z,3.97
2022-12-28T01:33:30.525Z,3.80
2022-12-28T01:38:33.457Z,4.20
2022-12-28T01:43:42.097Z,4.03
2022-12-28T01:48:59.717Z,4.10
2022-12-28T01:54:03.909Z,3.97
2022-12-28T01:59:07.071Z,4.00
2022-12-28T02:04:14.066Z,3.90
2022-12-28T02:09:20.717Z,4.00
2022-12-28T02:14:24.102Z,4.13
2022-12-28T02:19:38.221Z,4.93
2022-12-28T02:25:12.053Z,4.33
2022-12-28T02:30:18.586Z,4.03
2022-12-28T02:35:34.527Z,4.60
2022-12-28T02:40:42.399Z,4.63
2022-12-28T02:46:05.739Z,5.20
2022-12-28T02:51:48.723Z,5.23
2022-12-28T02:56:56.779Z,4.43
2022-12-28T03:02:15.745Z,4.20
2022-12-28T03:07:43.812Z,4.70
2022-12-28T03:12:51.871Z,4.47
2022-12-28T03:18:20.414Z,4.50
2022-12-28T03:23:42.652Z,4.70
2022-12-28T03:29:05.390Z,3.83
2022-12-28T03:34:15.116Z,4.30
2022-12-28T03:39:33.534Z,4.40
2022-12-28T03:44:37.159Z,4.50
2022-12-28T03:49:42.346Z,4.30
2022-12-28T03:54:46.292Z,4.37
2022-12-28T03:59:51.575Z,4.67
2022-12-28T04:04:56.092Z,4.50
2022-12-28T04:09:59.532Z,4.93
2022-12-28T04:15:02.645Z,4.47
2022-12-28T04:20:09.667Z,4.70
2022-12-28T04:25:12.691Z,4.27
2022-12-28T04:30:16.409Z,4.47
2022-12-28T04:35:20.806Z,4.43
2022-12-28T04:40:26.070Z,4.00
2022-12-28T04:45:29.184Z,3.77
2022-12-28T04:50:33.633Z,3.57
2022-12-28T04:55:36.625Z,3.50
2022-12-28T05:00:39.772Z,3.40
2022-12-28T05:05:44.143Z,3.33
2022-12-28T05:10:47.112Z,3.23
2022-12-28T05:15:50.232Z,2.80
2022-12-28T05:21:01.739Z,3.00
2022-12-28T05:26:06.037Z,2.60
2022-12-28T05:31:12.324Z,2.40
2022-12-28T05:36:19.631Z,1.87
2022-12-28T05:41:24.635Z,2.10
2022-12-28T05:46:32.304Z,2.33
2022-12-28T05:51:39.546Z,2.07
2022-12-28T05:56:42.802Z,2.53
2022-12-28T06:01:45.915Z,2.10
2022-12-28T06:06:50.805Z,2.00
2022-12-28T06:11:53.783Z,2.17
2022-12-28T06:16:56.841Z,2.00
2022-12-28T06:22:01.295Z,2.00
2022-12-28T06:27:04.261Z,2.03
2022-12-28T06:32:07.403Z,2.87
2022-12-28T06:37:11.821Z,2.00
2022-12-28T06:42:14.755Z,2.30
2022-12-28T06:47:18.742Z,2.13
2022-12-28T06:52:23.383Z,1.80
2022-12-28T06:57:26.372Z,2.07
2022-12-28T07:02:29.560Z,2.03
2022-12-28T07:07:34.046Z,2.10
2022-12-28T07:12:37.200Z,2.07
2022-12-28T07:17:40.119Z,2.07
2022-12-28T07:22:44.615Z,1.97
2022-12-28T07:27:47.601Z,1.80
2022-12-28T07:32:50.645Z,2.13
2022-12-28T07:37:55.295Z,2.20
2022-12-28T07:43:01.129Z,2.20
2022-12-28T07:48:04.248Z,2.50
2022-12-28T07:53:08.637Z,2.30
2022-12-28T07:58:11.646Z,2.03
2022-12-28T08:03:14.779Z,2.00
2022-12-28T08:08:19.168Z,1.80
2022-12-28T08:13:22.172Z,2.00
2022-12-28T08:18:25.181Z,2.17
2022-12-28T08:23:29.905Z,1.97
2022-12-28T08:28:32.902Z,1.90
2022-12-28T08:33:36.420Z,2.10
2022-12-28T08:38:44.221Z,2.10
2022-12-28T08:43:47.942Z,2.13
2022-12-28T08:48:52.078Z,2.70
2022-12-28T08:53:56.510Z,1.90
2022-12-28T08:59:00.386Z,2.10
2022-12-28T09:04:03.884Z,2.00
2022-12-28T09:09:11.679Z,2.57
2022-12-28T09:14:22.519Z,2.30
2022-12-28T09:19:26.108Z,2.00
2022-12-28T09:24:30.508Z,1.93
2022-12-28T09:29:33.408Z,2.20
2022-12-28T09:34:37.873Z,2.60
2022-12-28T09:39:42.712Z,2.67
2022-12-28T09:44:53.717Z,2.63
2022-12-28T09:50:12.758Z,2.50
2022-12-28T09:55:19.367Z,2.40
2022-12-28T10:00:24.512Z,2.53
2022-12-28T10:05:28.093Z,2.77
2022-12-28T10:10:32.968Z,2.27
2022-12-28T10:15:36.058Z,2.67
2022-12-28T10:20:40.978Z,2.90
2022-12-28T10:25:45.925Z,2.50
2022-12-28T10:31:03.077Z,2.50
2022-12-28T10:36:06.579Z,3.27
2022-12-28T10:41:14.492Z,2.80
2022-12-28T10:46:20.179Z,2.40
2022-12-28T10:51:25.626Z,2.30
2022-12-28T10:56:30.979Z,2.80
2022-12-28T11:01:34.121Z,2.70
2022-12-28T11:06:51.524Z,2.00
2022-12-28T11:11:58.140Z,1.87
2022-12-28T11:17:15.448Z,2.30
2022-12-28T11:22:24.415Z,2.20
2022-12-28T11:27:29.732Z,2.13
2022-12-28T11:32:39.290Z,2.30
2022-12-28T11:37:50.114Z,2.23
2022-12-28T11:42:58.380Z,2.30
2022-12-28T11:48:37.061Z,2.23
2022-12-28T11:54:00.078Z,2.63
2022-12-28T11:59:20.750Z,2.13
2022-12-28T12:04:41.716Z,2.80
2022-12-28T12:09:46.781Z,2.50
2022-12-28T12:14:58.526Z,2.57
2022-12-28T12:20:06.851Z,2.40
2022-12-28T12:25:19.502Z,2.00
2022-12-28T12:30:24.938Z,2.03
2022-12-28T12:35:35.108Z,2.27
2022-12-28T12:41:06.101Z,2.13
2022-12-28T12:46:30.321Z,2.87
2022-12-28T12:51:40.994Z,2.07
2022-12-28T12:56:49.772Z,3.13
2022-12-28T13:01:59.977Z,3.10
2022-12-28T13:07:05.834Z,2.50
2022-12-28T13:12:15.841Z,2.37
2022-12-28T13:17:22.919Z,2.10
2022-12-28T13:22:30.743Z,2.23
2022-12-28T13:27:36.581Z,2.20
2022-12-28T13:32:52.227Z,2.17
2022-12-28T13:38:03.757Z,2.10
2022-12-28T13:43:33.273Z,2.77
2022-12-28T13:48:42.716Z,2.30
2022-12-28T13:53:48.895Z,2.37
2022-12-28T13:58:55.620Z,2.00
2022-12-28T14:04:42.469Z,2.13
2022-12-28T14:09:27.937Z,2.30
2022-12-28T14:14:31.275Z,2.30
2022-12-28T14:19:36.489Z,2.77
2022-12-28T14:24:59.577Z,2.27
2022-12-28T14:30:03.022Z,2.10
2022-12-28T14:35:16.776Z,2.53
2022-12-28T14:40:28.131Z,2.10
2022-12-28T14:46:05.039Z,2.37
2022-12-28T14:51:25.654Z,1.83
2022-12-28T14:56:35.905Z,2.27
2022-12-28T15:01:43.290Z,2.47
2022-12-28T15:06:48.782Z,2.60
2022-12-28T15:12:09.891Z,2.47
2022-12-28T15:17:14.835Z,2.47
2022-12-28T15:22:19.764Z,1.80
2022-12-28T15:27:22.769Z,2.50
2022-12-28T15:32:25.864Z,2.37
2022-12-28T15:37:30.211Z,1.80
2022-12-28T15:42:38.227Z,1.63
2022-12-28T15:47:43.486Z,1.60
2022-12-28T15:52:47.836Z,2.63
2022-12-28T15:57:50.798Z,1.90
2022-12-28T16:02:55.410Z,1.90
2022-12-28T16:07:59.983Z,2.40
2022-12-28T16:13:02.977Z,2.00
2022-12-28T16:18:06.033Z,2.50
2022-12-28T16:23:11.019Z,2.93
2022-12-28T16:28:15.008Z,2.33
2022-12-28T16:33:18.001Z,2.60
2022-12-28T16:38:25.193Z,2.73
2022-12-28T16:43:28.256Z,2.43
2022-12-28T16:48:31.154Z,2.30
2022-12-28T16:53:37.872Z,2.33
2022-12-28T16:58:44.985Z,2.70
2022-12-28T17:03:50.594Z,2.60
2022-12-28T17:08:54.897Z,2.67
2022-12-28T17:14:02.354Z,2.90
2022-12-28T17:19:05.683Z,2.47
2022-12-28T17:24:10.387Z,2.43
2022-12-28T17:29:13.353Z,2.63
2022-12-28T17:34:16.884Z,5.30
2022-12-28T17:39:21.405Z,2.20
2022-12-28T17:44:24.362Z,2.40
2022-12-28T17:49:28.040Z,2.67
2022-12-28T17:54:32.930Z,2.50
2022-12-28T17:59:35.991Z,2.90
2022-12-28T18:04:39.370Z,2.53
2022-12-28T18:09:43.669Z,2.60
2022-12-28T18:14:46.659Z,2.23
2022-12-28T18:19:49.803Z,2.50
2022-12-28T18:24:54.623Z,2.67
2022-12-28T18:29:59.327Z,2.47
2022-12-28T18:35:02.374Z,2.60
2022-12-28T18:40:08.644Z,2.93
2022-12-28T18:45:12.208Z,2.47
2022-12-28T18:50:15.727Z,3.00
2022-12-28T18:55:22.368Z,2.80
2022-12-28T19:00:26.834Z,2.70
2022-12-28T19:05:29.773Z,2.20
2022-12-28T19:10:34.430Z,2.27
2022-12-28T19:15:37.873Z,2.50
2022-12-28T19:20:42.392Z,2.77
2022-12-28T19:25:46.816Z,2.80
2022-12-28T19:30:51.483Z,2.60
2022-12-28T19:35:54.469Z,2.70
2022-12-28T19:41:03.803Z,2.93
2022-12-28T19:46:09.327Z,2.93
2022-12-28T19:51:12.751Z,2.70
2022-12-28T19:56:18.223Z,2.60
2022-12-28T20:01:24.940Z,3.00
2022-12-28T20:06:31.050Z,2.90
2022-12-28T20:11:35.536Z,3.00
2022-12-28T20:16:38.524Z,2.97
2022-12-28T20:21:42.521Z,3.10
2022-12-28T20:26:47.050Z,3.97
2022-12-28T20:31:50.940Z,3.40
2022-12-28T20:36:54.269Z,3.10
2022-12-28T20:42:18.638Z,3.10
2022-12-28T20:47:21.727Z,2.63
2022-12-28T20:52:24.737Z,2.60
2022-12-28T20:57:29.206Z,2.40
2022-12-28T21:02:32.297Z,2.40
2022-12-28T21:07:35.410Z,2.40
2022-12-28T21:12:39.804Z,1.90
2022-12-28T21:17:42.787Z,2.20
2022-12-28T21:22:45.807Z,2.47
2022-12-28T21:27:50.461Z,2.20
2022-12-28T21:32:54.102Z,2.33
2022-12-28T21:37:57.109Z,2.27
2022-12-28T21:43:01.438Z,2.20
2022-12-28T21:48:04.863Z,2.07
2022-12-28T21:53:07.946Z,2.17
2022-12-28T21:58:12.334Z,2.00
2022-12-28T22:03:32.607Z,1.93
2022-12-28T22:08:53.892Z,2.10
2022-12-28T22:13:58.289Z,2.17
2022-12-28T22:19:03.055Z,2.03
2022-12-28T22:24:07.052Z,2.07
2022-12-28T22:29:11.468Z,2.30
2022-12-28T22:34:14.460Z,2.23
2022-12-28T22:39:17.508Z,2.40
2022-12-28T22:44:21.909Z,1.93
2022-12-28T22:49:24.925Z,2.20
2022-12-28T22:54:30.608Z,2.00
2022-12-28T22:59:34.993Z,2.27
2022-12-28T23:04:38.245Z,2.10
2022-12-28T23:09:41.253Z,1.90
2022-12-28T23:15:02.912Z,1.90
2022-12-28T23:20:24.111Z,2.00
2022-12-28T23:25:45.813Z,1.53
2022-12-28T23:30:51.764Z,1.70
2022-12-28T23:35:54.792Z,1.53
2022-12-28T23:41:14.317Z,1.30
2022-12-28T23:46:18.846Z,1.50
2022-12-28T23:51:21.857Z,1.60
2022-12-28T23:56:25.847Z,1.30
